Time;durP1;ratioP1;P1;durP2;ratioP2;P2;SDS_P1;SDS_P2;PMS_P1;PMS_P2;Temp;Humidity;BMP_temperature;BMP_pressure;BME280_temperature;BME280_humidity;BME280_pressure;Samples;Min_cycle;Max_cycle;Signal;HPM_P1;HPM_P2
2021/08/25 00:00:22;;;;;;;3.22;2.72;;;12.20;99.80;;;;;;5074068;28;20024;-69
2021/08/25 00:02:49;;;;;;;3.05;2.83;;;12.30;99.20;;;;;;5074169;28;20496;-71
2021/08/25 00:05:16;;;;;;;2.85;2.75;;;12.30;99.10;;;;;;5074095;28;20412;-69
2021/08/25 00:07:44;;;;;;;2.80;2.60;;;12.60;99.60;;;;;;5074047;28;20024;-69
2021/08/25 00:10:12;;;;;;;2.60;2.50;;;12.60;98.50;;;;;;5073954;28;20503;-70
2021/08/25 00:12:40;;;;;;;3.53;2.92;;;12.80;98.70;;;;;;5073808;28;20025;-70
2021/08/25 00:15:08;;;;;;;2.65;2.50;;;12.90;98.70;;;;;;5072241;28;20139;-68
2021/08/25 00:17:36;;;;;;;3.20;3.03;;;12.60;98.10;;;;;;5072565;28;20028;-68
2021/08/25 00:20:05;;;;;;;3.10;2.90;;;12.60;98.30;;;;;;5072445;28;20548;-70
2021/08/25 00:22:32;;;;;;;3.00;2.80;;;12.70;99.40;;;;;;5073715;28;20028;-68
2021/08/25 00:24:59;;;;;;;3.00;2.80;;;12.60;98.50;;;;;;5073732;28;20078;-68
2021/08/25 00:27:27;;;;;;;2.67;2.47;;;12.70;98.60;;;;;;5072325;28;20048;-68
2021/08/25 00:29:54;;;;;;;2.30;2.20;;;12.80;98.70;;;;;;5073540;28;20025;-68
2021/08/25 00:32:21;;;;;;;2.80;2.45;;;12.90;98.10;;;;;;5073574;28;20020;-69
2021/08/25 00:34:49;;;;;;;2.63;2.50;;;13.00;98.20;;;;;;5073371;28;20023;-67
2021/08/25 00:37:16;;;;;;;2.78;2.50;;;13.00;97.60;;;;;;5073647;28;20028;-70
2021/08/25 00:39:43;;;;;;;2.30;2.20;;;13.20;97.70;;;;;;5072148;28;20024;-68
2021/08/25 00:42:11;;;;;;;2.80;2.53;;;13.00;97.40;;;;;;5073322;28;20040;-68
2021/08/25 00:44:38;;;;;;;2.20;2.10;;;13.10;97.40;;;;;;5073359;28;20068;-70
2021/08/25 00:47:06;;;;;;;2.80;2.67;;;13.20;98.10;;;;;;5073321;28;20103;-69
2021/08/25 00:49:33;;;;;;;2.78;2.58;;;13.20;97.90;;;;;;5073276;28;20024;-68
2021/08/25 00:52:00;;;;;;;2.95;2.70;;;13.20;97.80;;;;;;5073262;28;20032;-68
2021/08/25 00:54:28;;;;;;;2.47;2.38;;;13.20;98.00;;;;;;5071815;28;20435;-69
2021/08/25 00:56:55;;;;;;;2.13;1.92;;;13.40;96.80;;;;;;5072961;28;20115;-69
2021/08/25 00:59:22;;;;;;;2.35;2.10;;;13.60;98.10;;;;;;5072906;28;20021;-69
2021/08/25 01:02:08;;;;;;;2.05;1.55;;;13.70;97.10;;;;;;5071750;28;20489;-70
2021/08/25 01:04:45;;;;;;;2.90;2.25;;;13.80;96.30;;;;;;5073071;28;20381;-69
2021/08/25 01:07:14;;;;;;;2.65;2.55;;;14.10;96.70;;;;;;5073090;28;20362;-69
2021/08/25 01:09:42;;;;;;;2.65;2.50;;;13.90;96.10;;;;;;5072796;28;20020;-70
2021/08/25 01:12:10;;;;;;;2.20;2.10;;;14.00;96.60;;;;;;5072828;28;20025;-70
2021/08/25 01:14:39;;;;;;;2.13;2.00;;;14.20;95.90;;;;;;5071382;28;20213;-69
2021/08/25 01:17:07;;;;;;;2.40;2.30;;;14.20;96.70;;;;;;5071476;28;20047;-69
2021/08/25 01:19:48;;;;;;;2.50;2.30;;;14.50;96.30;;;;;;5072821;28;20433;-69
2021/08/25 01:22:21;;;;;;;2.38;2.20;;;14.60;96.20;;;;;;5071059;28;20020;-69
2021/08/25 01:24:50;;;;;;;2.65;2.50;;;14.60;95.10;;;;;;5072764;28;20028;-70
2021/08/25 01:27:20;;;;;;;2.60;2.40;;;14.40;95.40;;;;;;5072649;28;20389;-69
2021/08/25 01:29:48;;;;;;;3.15;2.95;;;14.50;96.10;;;;;;5072869;28;20074;-70
2021/08/25 01:32:16;;;;;;;2.83;2.70;;;14.70;96.10;;;;;;5072617;28;20031;-68
2021/08/25 01:34:53;;;;;;;2.90;2.80;;;14.80;95.80;;;;;;5072795;28;20082;-69
2021/08/25 01:37:22;;;;;;;3.50;2.78;;;14.70;95.70;;;;;;5072857;28;20036;-69
2021/08/25 01:39:50;;;;;;;3.17;3.08;;;14.60;95.80;;;;;;5072573;28;20098;-68
2021/08/25 01:42:20;;;;;;;2.75;2.55;;;14.90;96.00;;;;;;5071221;28;20021;-69
2021/08/25 01:44:47;;;;;;;;;;;15.20;96.40;;;;;;5072991;28;20039;-69
2021/08/25 01:47:15;;;;;;;2.50;2.40;;;15.30;95.10;;;;;;5072545;28;19950;-68
2021/08/25 01:49:50;;;;;;;2.33;2.22;;;15.10;95.10;;;;;;5072533;28;20103;-68
2021/08/25 01:52:18;;;;;;;2.72;2.63;;;15.20;95.00;;;;;;5071056;28;20028;-69
2021/08/25 01:54:48;;;;;;;2.40;2.20;;;15.20;95.00;;;;;;5072449;28;20036;-68
2021/08/25 01:57:15;;;;;;;2.65;2.55;;;14.90;95.30;;;;;;5072306;28;20020;-69
2021/08/25 01:59:43;;;;;;;2.40;2.30;;;15.00;95.90;;;;;;5072317;28;20021;-68
2021/08/25 02:02:11;;;;;;;2.70;2.50;;;15.20;96.00;;;;;;5072364;28;20025;-69
2021/08/25 02:04:38;;;;;;;2.95;2.78;;;15.30;95.00;;;;;;5072490;28;20501;-69
2021/08/25 02:07:06;;;;;;;2.63;2.50;;;15.40;95.10;;;;;;5072266;28;20389;-67
2021/08/25 02:09:33;;;;;;;3.13;2.50;;;15.50;94.90;;;;;;5070912;28;20020;-70
2021/08/25 02:12:01;;;;;;;2.90;2.60;;;15.50;95.80;;;;;;5072434;28;20025;-67
2021/08/25 02:14:28;;;;;;;2.50;2.30;;;15.60;95.70;;;;;;5071987;28;20044;-67
2021/08/25 02:16:55;;;;;;;2.30;2.20;;;15.90;94.70;;;;;;5072111;28;20025;-68
2021/08/25 02:19:23;;;;;;;2.50;2.30;;;15.80;94.60;;;;;;5072177;28;20095;-67
2021/08/25 02:21:50;;;;;;;2.45;2.35;;;16.00;95.00;;;;;;5070833;28;20075;-67
2021/08/25 02:24:18;;;;;;;2.97;2.78;;;16.10;94.70;;;;;;5072193;28;20483;-68
2021/08/25 02:26:45;;;;;;;2.97;2.30;;;16.40;94.50;;;;;;5070852;28;20396;-67
2021/08/25 02:29:12;;;;;;;2.50;2.40;;;16.30;93.50;;;;;;5072158;28;20099;-68
2021/08/25 02:31:40;;;;;;;2.80;2.60;;;16.30;94.10;;;;;;5072150;28;20025;-67
2021/08/25 02:34:07;;;;;;;2.35;2.25;;;16.10;94.50;;;;;;5072136;28;20361;-67
2021/08/25 02:36:34;;;;;;;3.85;2.78;;;16.20;95.20;;;;;;5075613;28;20036;-68
2021/08/25 02:39:03;;;;;;;2.25;2.15;;;15.90;93.80;;;;;;5074585;28;20433;-68
2021/08/25 02:41:30;;;;;;;2.30;2.10;;;15.70;94.20;;;;;;5075662;28;20023;-68
2021/08/25 02:43:57;;;;;;;2.50;2.40;;;15.90;94.00;;;;;;5074202;28;20116;-68
2021/08/25 02:46:25;;;;;;;2.50;2.40;;;15.80;94.40;;;;;;5075495;28;20020;-69
2021/08/25 02:48:52;;;;;;;2.50;2.30;;;15.90;94.40;;;;;;5074278;28;20028;-69
2021/08/25 02:51:20;;;;;;;2.53;2.38;;;15.80;93.90;;;;;;5074138;28;20021;-68
2021/08/25 02:53:47;;;;;;;3.00;2.75;;;16.00;93.50;;;;;;5075455;28;20029;-68
2021/08/25 02:56:14;;;;;;;2.70;2.50;;;16.00;93.80;;;;;;5075260;28;20082;-67
2021/08/25 02:58:42;;;;;;;2.47;2.30;;;16.00;94.50;;;;;;5075156;28;20017;-68
2021/08/25 03:01:09;;;;;;;2.60;2.50;;;16.10;94.30;;;;;;5075387;28;20024;-69
2021/08/25 03:03:37;;;;;;;2.30;2.20;;;15.90;93.60;;;;;;5073901;28;20477;-69
2021/08/25 03:06:04;;;;;;;2.00;1.90;;;15.50;93.80;;;;;;5073906;28;20036;-68
2021/08/25 03:08:31;;;;;;;2.30;2.20;;;15.30;94.40;;;;;;5073830;28;20127;-69
2021/08/25 03:10:59;;;;;;;3.00;2.80;;;15.30;94.30;;;;;;5075005;28;20048;-68
2021/08/25 03:13:26;;;;;;;2.80;2.60;;;15.20;95.10;;;;;;5074965;28;20103;-67
2021/08/25 03:15:53;;;;;;;2.40;2.30;;;15.10;94.50;;;;;;5073630;28;20029;-69
2021/08/25 03:18:21;;;;;;;2.63;2.50;;;15.10;94.20;;;;;;5075158;28;20037;-67
2021/08/25 03:20:48;;;;;;;2.80;2.70;;;15.10;94.60;;;;;;5074939;28;20024;-68
2021/08/25 03:23:15;;;;;;;2.70;2.60;;;15.20;94.30;;;;;;5074960;28;20020;-69
2021/08/25 03:25:42;;;;;;;2.40;2.20;;;15.20;94.60;;;;;;5073513;28;20158;-67
2021/08/25 03:28:10;;;;;;;2.50;2.30;;;15.40;93.90;;;;;;5074667;28;20025;-68
2021/08/25 03:30:37;;;;;;;2.47;2.30;;;15.40;93.60;;;;;;5073635;28;20036;-68
2021/08/25 03:33:08;;;;;;;2.25;2.25;;;15.40;94.30;;;;;;5074768;28;20056;-68
2021/08/25 03:35:35;;;;;;;2.60;2.50;;;15.50;93.90;;;;;;5074464;28;20102;-67
2021/08/25 03:38:02;;;;;;;2.60;2.50;;;15.50;93.90;;;;;;5073386;28;20025;-68
2021/08/25 03:40:30;;;;;;;2.72;2.63;;;15.60;93.90;;;;;;5073139;28;20024;-68
2021/08/25 03:42:57;;;;;;;2.85;2.65;;;15.90;93.90;;;;;;5074499;28;20056;-68
2021/08/25 03:45:24;;;;;;;2.30;2.20;;;16.00;93.60;;;;;;5072961;28;20028;-68
2021/08/25 03:47:52;;;;;;;2.55;2.40;;;15.80;93.70;;;;;;5074252;28;20020;-68
2021/08/25 03:50:19;;;;;;;2.58;2.47;;;15.80;93.00;;;;;;5074262;28;20101;-68
2021/08/25 03:52:46;;;;;;;2.55;2.45;;;16.00;93.50;;;;;;5074316;28;20021;-68
2021/08/25 03:55:14;;;;;;;2.42;2.33;;;16.00;94.20;;;;;;5074225;28;20055;-67
2021/08/25 03:57:41;;;;;;;2.70;2.60;;;15.90;93.60;;;;;;5073105;28;20393;-67
2021/08/25 04:00:09;;;;;;;2.67;2.47;;;15.90;93.50;;;;;;5074127;28;20048;-68
2021/08/25 04:02:36;;;;;;;2.85;2.65;;;16.00;94.20;;;;;;5074014;28;20415;-67
2021/08/25 04:05:04;;;;;;;2.72;2.53;;;16.00;94.10;;;;;;5072758;28;20449;-69
2021/08/25 04:07:31;;;;;;;2.70;2.60;;;16.00;93.60;;;;;;5074006;28;20024;-68
2021/08/25 04:09:58;;;;;;;2.50;2.40;;;16.10;93.50;;;;;;5072585;28;20027;-68
2021/08/25 04:12:26;;;;;;;2.80;2.60;;;16.20;93.20;;;;;;5073887;28;20017;-68
2021/08/25 04:14:53;;;;;;;2.80;2.60;;;16.00;93.10;;;;;;5073743;28;20519;-68
2021/08/25 04:17:20;;;;;;;2.30;2.20;;;16.00;93.40;;;;;;5073816;28;20040;-68
2021/08/25 04:19:47;;;;;;;2.33;2.22;;;15.90;93.70;;;;;;5072692;28;20023;-68
2021/08/25 04:22:15;;;;;;;2.33;2.22;;;15.80;93.40;;;;;;5073816;28;20020;-68
2021/08/25 04:24:42;;;;;;;2.55;2.35;;;15.80;93.90;;;;;;5073880;28;20383;-68
2021/08/25 04:27:09;;;;;;;2.72;2.53;;;15.80;93.50;;;;;;5073678;28;20043;-68
2021/08/25 04:29:37;;;;;;;2.50;2.30;;;15.80;94.20;;;;;;5073676;28;20021;-67
2021/08/25 04:32:04;;;;;;;2.47;2.28;;;15.80;93.90;;;;;;5073643;28;20024;-68
2021/08/25 04:34:32;;;;;;;2.25;2.15;;;15.80;94.20;;;;;;5073593;28;20028;-69
2021/08/25 04:36:59;;;;;;;3.15;2.08;;;16.00;94.10;;;;;;5073437;28;20021;-69
2021/08/25 04:39:27;;;;;;;2.42;2.25;;;16.10;94.20;;;;;;5072308;28;20549;-68
2021/08/25 04:41:54;;;;;;;2.50;2.30;;;16.10;93.80;;;;;;5071997;28;20020;-68
2021/08/25 04:44:21;;;;;;;2.90;2.30;;;16.00;93.90;;;;;;5073399;28;20051;-68
2021/08/25 04:46:49;;;;;;;2.25;2.20;;;16.00;93.40;;;;;;5072184;28;20481;-68
2021/08/25 04:49:16;;;;;;;2.25;2.15;;;16.00;93.90;;;;;;5071868;28;20031;-68
2021/08/25 04:51:43;;;;;;;2.20;2.10;;;15.90;93.60;;;;;;5073371;28;20074;-69
2021/08/25 04:54:11;;;;;;;2.10;2.00;;;15.80;94.20;;;;;;5071085;28;20032;-69
2021/08/25 04:56:38;;;;;;;2.78;2.67;;;15.70;93.80;;;;;;5072968;28;20024;-69
2021/08/25 04:59:05;;;;;;;2.20;2.10;;;15.70;94.20;;;;;;5072771;28;20385;-69
2021/08/25 05:01:34;;;;;;;2.30;2.20;;;15.70;93.80;;;;;;5073240;28;20017;-68
2021/08/25 05:04:01;;;;;;;2.20;2.10;;;15.70;93.90;;;;;;5073119;28;20016;-69
2021/08/25 05:06:28;;;;;;;2.40;2.30;;;15.80;93.80;;;;;;5073236;28;20501;-69
2021/08/25 05:08:56;;;;;;;2.33;2.20;;;15.80;93.70;;;;;;5073203;28;20025;-69
2021/08/25 05:11:23;;;;;;;2.85;2.65;;;15.70;93.80;;;;;;5072986;28;20374;-69
2021/08/25 05:13:50;;;;;;;2.35;2.20;;;15.80;94.20;;;;;;5071472;28;20139;-68
2021/08/25 05:16:22;;;;;;;2.13;2.03;;;15.60;93.70;;;;;;5071472;28;20136;-69
2021/08/25 05:18:49;;;;;;;2.45;2.25;;;15.50;94.10;;;;;;5073194;28;20024;-69
2021/08/25 05:21:16;;;;;;;2.10;2.00;;;15.50;94.10;;;;;;5071598;28;20397;-68
2021/08/25 05:23:44;;;;;;;2.42;2.30;;;15.50;94.00;;;;;;5072842;28;20023;-68
2021/08/25 05:26:11;;;;;;;3.55;1.90;;;15.50;94.00;;;;;;5072787;28;20032;-68
2021/08/25 05:28:38;;;;;;;1.90;1.90;;;15.60;93.80;;;;;;5072717;28;20042;-67
2021/08/25 05:31:06;;;;;;;2.10;2.10;;;15.60;94.10;;;;;;5072811;28;20078;-66
2021/08/25 05:33:33;;;;;;;2.00;1.90;;;15.50;94.00;;;;;;5071497;28;20020;-67
2021/08/25 05:36:00;;;;;;;2.92;2.80;;;15.40;94.60;;;;;;5072514;28;20242;-68
2021/08/25 05:38:28;;;;;;;2.28;2.17;;;15.40;94.30;;;;;;5071336;28;20016;-67
2021/08/25 05:40:56;;;;;;;2.20;2.10;;;15.40;94.30;;;;;;5072724;28;20043;-69
2021/08/25 05:43:23;;;;;;;2.45;2.33;;;15.40;94.50;;;;;;5072542;28;20021;-69
2021/08/25 05:45:51;;;;;;;2.22;2.00;;;15.40;94.30;;;;;;5072760;28;20028;-69
2021/08/25 05:48:18;;;;;;;2.33;2.13;;;15.40;94.10;;;;;;5072614;28;20024;-69
2021/08/25 05:50:46;;;;;;;2.25;2.10;;;15.50;94.00;;;;;;5072752;28;20025;-70
2021/08/25 05:53:13;;;;;;;2.30;2.20;;;15.50;94.20;;;;;;5071259;28;20056;-70
2021/08/25 05:55:40;;;;;;;2.38;2.28;;;15.50;94.30;;;;;;5072532;28;20028;-69
2021/08/25 05:58:08;;;;;;;2.45;2.35;;;15.50;94.80;;;;;;5071220;28;20021;-69
2021/08/25 06:00:35;;;;;;;2.70;2.60;;;15.40;94.30;;;;;;5072580;28;20515;-69
2021/08/25 06:03:03;;;;;;;2.92;2.47;;;15.40;94.50;;;;;;5072426;28;20100;-70
2021/08/25 06:05:30;;;;;;;3.10;2.90;;;15.40;94.40;;;;;;5072530;28;20021;-70
2021/08/25 06:07:58;;;;;;;2.95;2.80;;;15.40;94.60;;;;;;5072547;28;20024;-70
2021/08/25 06:10:25;;;;;;;2.70;2.60;;;15.30;94.90;;;;;;5076236;28;20112;-70
2021/08/25 06:12:53;;;;;;;2.60;2.50;;;15.30;94.40;;;;;;5074838;28;20078;-69
2021/08/25 06:15:20;;;;;;;2.60;2.40;;;15.30;94.30;;;;;;5074656;28;20493;-70
2021/08/25 06:17:47;;;;;;;2.50;2.30;;;15.30;94.40;;;;;;5076109;28;20077;-70
2021/08/25 06:20:15;;;;;;;2.60;2.50;;;15.30;94.40;;;;;;5076181;28;20024;-69
2021/08/25 06:22:43;;;;;;;2.20;2.10;;;15.30;94.40;;;;;;5074850;28;20112;-69
2021/08/25 06:25:11;;;;;;;2.38;2.20;;;15.30;94.10;;;;;;5074549;28;20617;-70
2021/08/25 06:27:39;;;;;;;2.50;2.40;;;15.40;94.30;;;;;;5076025;28;20454;-69
2021/08/25 06:30:07;;;;;;;2.25;2.15;;;15.30;94.40;;;;;;5075995;28;20103;-70
2021/08/25 06:32:35;;;;;;;2.10;2.00;;;15.40;94.20;;;;;;5075923;28;20021;-70
2021/08/25 06:35:03;;;;;;;2.20;2.10;;;15.40;94.80;;;;;;5075915;28;20381;-69
2021/08/25 06:37:30;;;;;;;2.20;2.10;;;15.30;94.30;;;;;;5074531;28;20027;-70
2021/08/25 06:39:57;;;;;;;2.28;2.15;;;15.30;94.40;;;;;;5075786;28;20021;-69
2021/08/25 06:42:25;;;;;;;2.53;2.33;;;15.30;94.50;;;;;;5075795;28;20095;-69
2021/08/25 06:44:52;;;;;;;2.25;2.15;;;15.20;94.40;;;;;;5075840;28;20033;-71
2021/08/25 06:47:19;;;;;;;2.42;2.30;;;15.20;94.10;;;;;;5074410;28;20389;-70
2021/08/25 06:49:48;;;;;;;2.47;2.35;;;15.20;94.20;;;;;;5075596;28;20485;-70
2021/08/25 06:52:15;;;;;;;2.90;2.40;;;15.20;94.20;;;;;;5074251;28;20032;-70
2021/08/25 06:54:43;;;;;;;2.20;2.10;;;15.20;94.20;;;;;;5075431;28;20021;-70
2021/08/25 06:57:10;;;;;;;2.28;2.15;;;15.20;94.10;;;;;;5075238;28;20025;-70
2021/08/25 06:59:37;;;;;;;2.13;2.03;;;15.10;94.20;;;;;;5075294;28;20019;-71
2021/08/25 07:02:05;;;;;;;2.20;2.10;;;15.10;94.40;;;;;;5074002;28;20021;-71
2021/08/25 07:04:32;;;;;;;2.70;2.50;;;15.10;94.10;;;;;;5075415;28;20020;-71
2021/08/25 07:06:59;;;;;;;2.50;2.40;;;15.00;94.80;;;;;;5075516;28;20094;-70
2021/08/25 07:09:27;;;;;;;2.15;2.10;;;15.00;94.40;;;;;;5075184;28;20025;-70
2021/08/25 07:11:54;;;;;;;2.50;2.40;;;15.00;94.10;;;;;;5075104;28;20447;-69
2021/08/25 07:14:22;;;;;;;2.20;2.00;;;15.00;94.10;;;;;;5074928;28;20049;-70
2021/08/25 07:16:49;;;;;;;1.90;1.80;;;15.00;94.20;;;;;;5073717;28;20397;-70
2021/08/25 07:19:16;;;;;;;2.30;2.10;;;15.00;94.60;;;;;;5073591;28;20021;-69
2021/08/25 07:21:44;;;;;;;2.10;1.63;;;15.00;94.60;;;;;;5072854;28;20397;-69
2021/08/25 07:24:11;;;;;;;1.90;1.80;;;14.90;94.20;;;;;;5074823;28;20031;-68
2021/08/25 07:26:38;;;;;;;2.15;2.05;;;14.90;94.30;;;;;;5074817;28;20027;-67
2021/08/25 07:29:06;;;;;;;2.17;2.05;;;14.90;94.60;;;;;;5074816;28;20086;-71
2021/08/25 07:31:34;;;;;;;2.03;1.92;;;14.90;94.40;;;;;;5073828;28;20025;-73
2021/08/25 07:34:02;;;;;;;2.22;2.00;;;14.80;94.50;;;;;;5056838;28;20042;-70
2021/08/25 07:36:29;;;;;;;3.17;2.97;;;14.80;94.50;;;;;;5073301;28;20029;-71
2021/08/25 07:38:56;;;;;;;2.30;2.08;;;14.80;94.70;;;;;;5074707;28;20025;-69
2021/08/25 07:41:24;;;;;;;2.13;2.03;;;14.80;94.60;;;;;;5074564;28;20023;-71
2021/08/25 07:43:51;;;;;;;2.10;2.00;;;14.80;94.80;;;;;;5074641;28;20103;-69
2021/08/25 07:46:18;;;;;;;2.00;1.80;;;14.70;95.40;;;;;;5073044;28;20448;-68
2021/08/25 07:48:46;;;;;;;2.00;1.90;;;14.60;94.90;;;;;;5074396;28;20029;-68
2021/08/25 07:51:13;;;;;;;1.85;1.75;;;14.60;94.70;;;;;;5072952;28;20047;-68
2021/08/25 07:53:40;;;;;;;1.60;1.50;;;14.50;94.90;;;;;;5073013;28;20203;-69
2021/08/25 07:56:08;;;;;;;2.10;2.00;;;14.40;94.80;;;;;;5072942;28;20024;-68
2021/08/25 07:58:35;;;;;;;2.40;2.20;;;14.40;94.90;;;;;;5074409;28;20141;-68
2021/08/25 08:01:02;;;;;;;2.75;2.55;;;14.40;95.20;;;;;;5074437;28;20028;-69
2021/08/25 08:03:30;;;;;;;2.65;2.45;;;14.30;95.10;;;;;;5074102;28;20381;-68
2021/08/25 08:05:57;;;;;;;2.72;2.53;;;14.30;95.00;;;;;;5074153;28;20023;-68
2021/08/25 08:08:25;;;;;;;2.35;2.25;;;14.30;95.00;;;;;;5072768;28;20498;-68
2021/08/25 08:10:54;;;;;;;2.40;2.20;;;14.30;95.10;;;;;;5072836;28;20028;-68
2021/08/25 08:13:21;;;;;;;2.35;2.25;;;14.30;94.90;;;;;;5073782;28;20024;-69
2021/08/25 08:15:51;;;;;;;3.22;2.67;;;14.40;95.10;;;;;;5072507;28;20542;-69
2021/08/25 08:18:31;;;;;;;1.77;1.77;;;14.40;95.00;;;;;;5073871;28;20017;-68
2021/08/25 08:20:58;;;;;;;2.10;2.00;;;14.40;95.20;;;;;;5072499;28;20366;-68
2021/08/25 08:23:26;;;;;;;2.58;2.42;;;14.40;95.10;;;;;;5072365;28;20025;-68
2021/08/25 08:25:54;;;;;;;2.65;2.38;;;14.40;95.10;;;;;;5073700;28;20434;-68
2021/08/25 08:28:22;;;;;;;2.35;2.25;;;14.40;95.10;;;;;;5072314;28;20021;-70
2021/08/25 08:30:49;;;;;;;2.20;2.10;;;14.40;95.10;;;;;;5073752;28;20088;-69
2021/08/25 08:33:17;;;;;;;1.88;1.77;;;14.40;95.30;;;;;;5072609;28;20079;-69
2021/08/25 08:35:44;;;;;;;2.35;1.90;;;14.40;95.40;;;;;;5073527;28;20032;-69
2021/08/25 08:38:11;;;;;;;1.90;1.80;;;14.40;95.40;;;;;;5072195;28;20048;-70
2021/08/25 08:40:38;;;;;;;2.45;2.25;;;14.30;95.50;;;;;;5072132;28;20020;-69
2021/08/25 08:43:11;;;;;;;2.67;2.20;;;14.30;95.50;;;;;;5071970;28;20016;-69
2021/08/25 08:45:43;;;;;;;2.70;2.50;;;14.20;95.60;;;;;;5073613;28;20481;-68
2021/08/25 08:48:14;;;;;;;2.55;2.30;;;14.20;95.70;;;;;;5073460;28;20020;-68
2021/08/25 08:50:44;;;;;;;2.70;2.55;;;14.20;95.60;;;;;;5073500;28;20119;-70
2021/08/25 08:53:12;;;;;;;2.42;2.28;;;14.20;95.70;;;;;;5072117;28;20036;-70
2021/08/25 08:55:40;;;;;;;2.20;2.10;;;14.20;95.70;;;;;;5073233;28;20024;-69
2021/08/25 08:58:07;;;;;;;2.50;2.33;;;14.20;95.80;;;;;;5073199;28;20031;-69
2021/08/25 09:00:35;;;;;;;2.53;2.40;;;14.10;95.80;;;;;;5073176;28;20031;-70
2021/08/25 09:03:03;;;;;;;2.88;2.78;;;14.10;96.10;;;;;;5071889;28;20025;-69
2021/08/25 09:05:33;;;;;;;2.63;2.53;;;14.20;95.80;;;;;;5073286;28;20025;-69
2021/08/25 09:08:03;;;;;;;3.78;3.38;;;14.10;95.70;;;;;;5073325;28;20457;-68
2021/08/25 09:10:31;;;;;;;4.60;4.30;;;14.10;95.70;;;;;;5071676;28;20422;-68
2021/08/25 09:13:03;;;;;;;3.72;3.50;;;14.10;95.70;;;;;;5072950;28;20529;-68
2021/08/25 09:15:33;;;;;;;3.78;3.47;;;14.00;96.10;;;;;;5072764;28;20444;-68
2021/08/25 09:18:05;;;;;;;3.17;2.97;;;13.90;96.20;;;;;;5072923;28;20012;-68
2021/08/25 09:20:35;;;;;;;2.60;2.40;;;13.80;96.10;;;;;;5072824;28;20016;-68
2021/08/25 09:23:24;;;;;;;2.40;2.30;;;13.80;96.10;;;;;;5072795;28;20024;-68
2021/08/25 09:25:58;;;;;;;2.53;2.33;;;13.80;96.50;;;;;;5071488;28;20287;-68
2021/08/25 09:28:33;;;;;;;2.65;2.50;;;13.80;96.30;;;;;;5072773;28;20103;-67
2021/08/25 09:31:03;;;;;;;2.83;2.15;;;13.80;96.40;;;;;;5072849;28;20437;-68
2021/08/25 09:33:44;;;;;;;2.58;2.40;;;13.80;96.10;;;;;;5072873;28;20032;-68
2021/08/25 09:36:15;;;;;;;2.00;1.90;;;13.80;96.10;;;;;;5072624;28;20032;-69
2021/08/25 09:38:56;;;;;;;1.92;1.83;;;13.70;96.50;;;;;;5072786;28;20027;-68
2021/08/25 09:41:24;;;;;;;2.17;1.92;;;13.60;96.40;;;;;;5072688;28;20029;-69
2021/08/25 09:43:52;;;;;;;2.13;2.03;;;13.60;96.70;;;;;;5074237;28;20032;-70
2021/08/25 09:46:20;;;;;;;2.47;2.28;;;13.60;96.50;;;;;;5076781;28;20082;-68
2021/08/25 09:48:53;;;;;;;2.78;2.58;;;13.50;96.80;;;;;;5076858;28;20389;-69
2021/08/25 09:51:24;;;;;;;2.25;2.08;;;13.50;96.80;;;;;;5076735;28;20112;-69
2021/08/25 09:54:10;;;;;;;3.90;2.42;;;13.50;97.00;;;;;;5076713;28;20020;-67
2021/08/25 09:56:38;;;;;;;2.70;2.50;;;13.50;96.80;;;;;;5076682;28;20489;-68
2021/08/25 09:59:08;;;;;;;2.80;2.60;;;13.40;96.80;;;;;;5076459;28;20074;-68
2021/08/25 10:01:36;;;;;;;2.75;2.55;;;13.40;96.70;;;;;;5075074;28;20572;-68
2021/08/25 10:04:08;;;;;;;2.60;2.40;;;13.30;97.00;;;;;;5075246;28;20028;-69
2021/08/25 10:06:37;;;;;;;2.03;1.90;;;13.30;97.40;;;;;;5076763;28;20032;-67
2021/08/25 10:09:08;;;;;;;4.28;2.22;;;13.20;97.40;;;;;;5076402;28;20025;-67
2021/08/25 10:11:39;;;;;;;2.78;2.50;;;13.10;97.50;;;;;;5074857;28;20074;-67
2021/08/25 10:14:10;;;;;;;;;;;13.10;97.50;;;;;;5075127;28;20443;-67
2021/08/25 10:16:39;;;;;;;3.00;2.58;;;13.10;97.60;;;;;;5074798;28;19951;-67
2021/08/25 10:19:38;;;;;;;3.45;2.60;;;13.20;97.50;;;;;;5076208;28;20069;-68
2021/08/25 10:22:25;;;;;;;2.70;2.50;;;13.10;97.60;;;;;;5076223;28;20020;-68
2021/08/25 10:24:58;;;;;;;2.72;2.53;;;13.10;97.70;;;;;;5074768;28;20020;-67
2021/08/25 10:27:30;;;;;;;2.88;2.67;;;13.20;97.60;;;;;;5076116;28;20032;-67
2021/08/25 10:30:03;;;;;;;2.53;2.40;;;13.20;97.40;;;;;;5074789;28;20025;-68
2021/08/25 10:32:49;;;;;;;2.88;2.67;;;13.30;97.10;;;;;;5076140;28;20035;-67
2021/08/25 10:35:22;;;;;;;2.70;2.60;;;13.20;97.30;;;;;;5074686;28;20029;-67
2021/08/25 10:37:51;;;;;;;2.95;2.75;;;13.30;97.20;;;;;;5074626;28;20515;-68
2021/08/25 10:40:32;;;;;;;2.90;2.70;;;13.30;97.20;;;;;;5075859;28;20158;-68
2021/08/25 10:43:01;;;;;;;2.95;2.70;;;13.20;97.20;;;;;;5075891;28;20017;-68
2021/08/25 10:45:58;;;;;;;2.50;2.40;;;13.20;97.30;;;;;;5075584;28;20025;-68
2021/08/25 10:48:43;;;;;;;2.53;2.40;;;13.10;97.40;;;;;;5058032;28;20108;-67
2021/08/25 10:51:43;;;;;;;2.70;2.50;;;13.00;97.70;;;;;;5074191;28;20028;-68
2021/08/25 10:54:13;;;;;;;3.40;3.20;;;12.90;97.70;;;;;;5042141;28;20024;-68
2021/08/25 10:56:41;;;;;;;2.50;2.40;;;12.90;97.90;;;;;;5072901;28;20443;-68
2021/08/25 10:59:11;;;;;;;2.70;2.50;;;12.90;98.00;;;;;;5074074;28;20052;-68
2021/08/25 11:01:47;;;;;;;2.53;2.35;;;12.80;98.20;;;;;;5073959;28;20052;-67
2021/08/25 11:04:19;;;;;;;2.60;2.45;;;12.80;98.10;;;;;;5075257;28;20063;-68
2021/08/25 11:06:59;;;;;;;3.00;2.60;;;12.80;98.50;;;;;;5075225;28;20366;-68
2021/08/25 11:09:29;;;;;;;2.80;2.60;;;12.90;98.10;;;;;;5073920;28;20028;-68
2021/08/25 11:12:13;;;;;;;2.63;2.42;;;12.90;97.90;;;;;;5075120;28;20111;-68
2021/08/25 11:14:49;;;;;;;2.72;2.53;;;12.90;97.90;;;;;;5075106;28;20413;-68
2021/08/25 11:17:27;;;;;;;2.70;2.42;;;13.00;97.90;;;;;;5075285;28;20032;-68
2021/08/25 11:19:54;;;;;;;2.70;2.60;;;12.90;98.10;;;;;;5074981;28;20044;-68
2021/08/25 11:22:32;;;;;;;2.78;2.58;;;12.90;98.20;;;;;;5074999;28;20021;-69
2021/08/25 11:25:05;;;;;;;2.42;2.20;;;12.80;98.50;;;;;;5075050;28;20357;-68
2021/08/25 11:27:35;;;;;;;2.63;2.42;;;12.60;98.50;;;;;;5074987;28;20099;-68
2021/08/25 11:30:20;;;;;;;2.50;2.40;;;12.60;98.70;;;;;;5074884;28;20064;-68
2021/08/25 11:32:48;;;;;;;3.97;2.75;;;12.50;98.90;;;;;;5074908;28;20526;-69
2021/08/25 11:35:28;;;;;;;3.00;2.72;;;12.30;99.10;;;;;;5074496;28;20035;-68
2021/08/25 11:37:58;;;;;;;3.55;3.25;;;12.30;99.50;;;;;;5074832;28;20025;-68
2021/08/25 11:40:27;;;;;;;3.25;3.00;;;12.10;99.70;;;;;;5074744;28;20033;-68
2021/08/25 11:42:55;;;;;;;3.60;3.30;;;12.00;99.90;;;;;;5073267;28;20031;-68
2021/08/25 11:45:32;;;;;;;4.00;3.65;;;11.90;99.90;;;;;;5074689;28;20016;-68
2021/08/25 11:48:02;;;;;;;4.20;3.90;;;11.80;99.90;;;;;;5073294;28;20035;-68
2021/08/25 11:50:38;;;;;;;3.90;3.70;;;11.80;99.90;;;;;;5074490;28;20070;-68
2021/08/25 11:53:14;;;;;;;3.90;3.60;;;11.80;99.90;;;;;;5073151;28;20391;-68
2021/08/25 11:55:41;;;;;;;3.30;3.10;;;11.70;99.90;;;;;;5074272;28;20029;-68
2021/08/25 11:58:33;;;;;;;3.55;3.35;;;11.70;99.90;;;;;;5074341;28;20484;-69
2021/08/25 12:01:01;;;;;;;3.50;3.30;;;11.70;99.90;;;;;;5074305;28;20024;-69
2021/08/25 12:03:43;;;;;;;3.60;3.30;;;11.60;99.90;;;;;;5074618;28;20024;-70
2021/08/25 12:06:12;;;;;;;3.20;3.00;;;11.50;99.90;;;;;;5074162;28;20028;-69
2021/08/25 12:08:44;;;;;;;4.20;3.45;;;11.50;99.90;;;;;;5074301;28;20030;-68
2021/08/25 12:11:14;;;;;;;3.10;2.90;;;11.50;99.90;;;;;;5072731;28;20028;-69
2021/08/25 12:13:44;;;;;;;3.67;3.47;;;11.60;99.90;;;;;;5073930;28;20044;-69
2021/08/25 12:16:27;;;;;;;3.42;3.22;;;11.50;99.90;;;;;;5072412;28;20460;-68
2021/08/25 12:18:57;;;;;;;3.40;3.20;;;11.50;99.90;;;;;;5073918;28;20024;-68
2021/08/25 12:21:29;;;;;;;3.50;3.30;;;11.50;99.90;;;;;;5072854;28;20025;-69
2021/08/25 12:24:01;;;;;;;3.60;3.40;;;11.40;99.90;;;;;;5073833;28;20024;-69
2021/08/25 12:26:29;;;;;;;3.40;3.20;;;11.50;99.90;;;;;;5073799;28;20469;-69
2021/08/25 12:28:58;;;;;;;3.30;3.10;;;11.50;99.90;;;;;;5073722;28;20407;-69
2021/08/25 12:31:27;;;;;;;3.53;3.22;;;11.50;99.90;;;;;;5072365;28;20086;-69
2021/08/25 12:34:12;;;;;;;3.33;3.13;;;11.40;99.90;;;;;;5072307;28;20043;-69
2021/08/25 12:36:44;;;;;;;3.65;3.45;;;11.50;99.90;;;;;;5073632;28;20093;-68
2021/08/25 12:39:17;;;;;;;4.15;3.30;;;11.50;99.90;;;;;;5073616;28;20020;-68
2021/08/25 12:41:46;;;;;;;3.70;3.50;;;11.50;99.90;;;;;;5073503;28;20017;-67
2021/08/25 12:44:14;;;;;;;3.55;3.35;;;11.50;99.90;;;;;;5073551;28;20027;-67
2021/08/25 12:46:56;;;;;;;4.10;3.88;;;11.50;99.90;;;;;;5073442;28;20032;-67
2021/08/25 12:49:28;;;;;;;3.85;3.58;;;11.50;99.90;;;;;;5073405;28;20024;-68
2021/08/25 12:51:57;;;;;;;3.40;3.30;;;11.40;99.90;;;;;;5073477;28;20040;-68
2021/08/25 12:54:25;;;;;;;4.15;3.60;;;11.30;99.90;;;;;;5073274;28;20020;-68
2021/08/25 12:56:53;;;;;;;4.10;3.80;;;11.30;99.90;;;;;;5073170;28;20024;-68
2021/08/25 12:59:21;;;;;;;3.90;3.60;;;11.30;99.90;;;;;;5073454;28;20024;-68